Time;durP1;ratioP1;P1;durP2;ratioP2;P2;SDS_P1;SDS_P2;PMS_P1;PMS_P2;Temp;Humidity;BMP_temperature;BMP_pressure;BME280_temperature;BME280_humidity;BME280_pressure;Samples;Min_cycle;Max_cycle;Signal;HPM_P1;HPM_P2
2022/05/17 00:00:08;;;;;;;7.40;2.40;;;;;;;15.90;80.37;96660.63;5048672;28;20052;-78
2022/05/17 00:02:35;;;;;;;4.10;2.47;;;;;;;15.95;80.46;96667.81;5049289;28;20041;-78
2022/05/17 00:05:01;;;;;;;6.05;2.65;;;;;;;15.91;80.34;96671.25;5051148;28;20049;-78
2022/05/17 00:07:28;;;;;;;6.97;2.83;;;;;;;15.87;80.96;96667.59;5057486;28;20051;-78
2022/05/17 00:09:55;;;;;;;5.70;2.70;;;;;;;15.90;80.75;96666.91;5056491;28;20060;-77
2022/05/17 00:12:22;;;;;;;16.60;3.25;;;;;;;15.94;80.27;96671.72;5051723;28;20048;-78
2022/05/17 00:14:49;;;;;;;10.15;2.92;;;;;;;15.84;80.40;96668.28;5050772;28;20067;-76
2022/05/17 00:17:15;;;;;;;6.40;3.35;;;;;;;15.81;80.85;96657.97;5049494;28;20064;-78
2022/05/17 00:19:42;;;;;;;8.63;3.05;;;;;;;15.84;80.50;96667.50;5049730;28;20069;-77
2022/05/17 00:22:08;;;;;;;6.70;2.90;;;;;;;15.90;80.37;96666.91;5049020;28;20609;-77
2022/05/17 00:24:35;;;;;;;6.45;3.08;;;;;;;15.87;80.16;96651.13;5051068;28;20099;-77
2022/05/17 00:27:04;;;;;;;7.28;3.20;;;;;;;15.93;80.11;96659.13;5052528;28;20105;-78
2022/05/17 00:29:31;;;;;;;7.60;3.40;;;;;;;15.96;80.01;96659.22;5052970;28;20049;-78
2022/05/17 00:31:57;;;;;;;4.68;2.90;;;;;;;15.87;80.21;96658.56;5053003;28;20523;-78
2022/05/17 00:34:24;;;;;;;4.53;2.90;;;;;;;15.93;79.90;96659.13;5052682;28;20044;-78
2022/05/17 00:36:51;;;;;;;7.15;3.05;;;;;;;15.84;80.01;96657.31;5054123;28;20056;-78
2022/05/17 00:39:18;;;;;;;10.38;3.33;;;;;;;15.91;79.99;96665.75;5052850;28;20056;-78
2022/05/17 00:41:44;;;;;;;6.82;3.13;;;;;;;15.97;79.80;96671.00;5052801;28;20531;-77
2022/05/17 00:47:02;;;;;;;7.55;3.20;;;;;;;16.03;79.65;96669.66;5052861;28;20119;-78
2022/05/17 00:49:33;;;;;;;7.00;3.80;;;;;;;16.00;79.34;96664.84;5052347;28;20049;-78
2022/05/17 00:52:09;;;;;;;6.70;3.30;;;;;;;15.98;79.74;96656.97;5052604;28;20610;-78
2022/05/17 00:54:36;;;;;;;8.27;3.55;;;;;;;16.00;79.85;96659.34;5052293;28;20041;-77
2022/05/17 00:57:10;;;;;;;6.40;3.40;;;;;;;16.03;79.57;96664.16;5051733;28;20057;-77
2022/05/17 00:59:39;;;;;;;8.15;3.20;;;;;;;16.05;79.41;96661.88;5052276;28;20041;-78
2022/05/17 01:02:07;;;;;;;6.60;3.55;;;;;;;15.91;79.75;96674.00;5051675;28;20428;-77
2022/05/17 01:04:33;;;;;;;9.82;4.18;;;;;;;15.76;80.21;96660.94;5052464;28;20052;-77
2022/05/17 01:07:04;;;;;;;9.65;3.78;;;;;;;15.83;80.37;96671.38;5052587;28;20047;-78
2022/05/17 01:09:30;;;;;;;8.18;3.55;;;;;;;15.88;80.26;96668.41;5051814;28;20124;-78
2022/05/17 01:11:57;;;;;;;8.25;3.35;;;;;;;15.86;80.03;96671.47;5051891;28;20049;-78
2022/05/17 01:17:09;;;;;;;6.22;3.45;;;;;;;15.94;79.68;96671.72;5051574;28;20535;-77
2022/05/17 01:19:39;;;;;;;7.25;3.88;;;;;;;15.89;79.81;96668.06;5051925;28;20103;-78
2022/05/17 01:22:07;;;;;;;6.25;3.55;;;;;;;15.94;79.91;96671.72;5051047;28;20219;-77
2022/05/17 01:24:34;;;;;;;12.35;4.00;;;;;;;15.83;79.69;96666.69;5051925;28;20492;-77
2022/05/17 01:27:07;;;;;;;6.65;3.45;;;;;;;15.88;79.91;96668.41;5051705;28;20488;-76
2022/05/17 01:29:39;;;;;;;8.25;3.30;;;;;;;15.90;79.85;96666.91;5051825;28;20496;-77
2022/05/17 01:32:08;;;;;;;10.63;3.88;;;;;;;15.94;79.87;96661.53;5051216;28;20657;-78
2022/05/17 01:34:35;;;;;;;7.78;3.85;;;;;;;15.94;79.81;96669.78;5051705;28;20037;-78
2022/05/17 01:37:02;;;;;;;6.78;4.10;;;;;;;15.85;80.20;96666.34;5050889;28;20746;-78
2022/05/17 01:39:30;;;;;;;5.95;4.15;;;;;;;15.87;80.11;96656.63;5051545;28;20107;-78
2022/05/17 01:41:56;;;;;;;7.43;3.50;;;;;;;15.94;79.83;96666.22;5051211;28;20049;-78
2022/05/17 01:44:24;;;;;;;9.48;4.13;;;;;;;15.96;79.48;96663.94;5032112;28;20056;-77
2022/05/17 01:46:50;;;;;;;7.97;3.95;;;;;;;15.97;79.91;96669.06;5049182;28;20516;-77
2022/05/17 01:49:17;;;;;;;10.13;4.10;;;;;;;16.02;79.37;96662.53;5050408;28;20053;-78
2022/05/17 01:51:43;;;;;;;11.65;4.35;;;;;;;15.99;79.22;96668.75;5051174;28;20044;-78
2022/05/17 01:54:10;;;;;;;8.65;4.13;;;;;;;16.01;79.00;96666.44;5050633;28;20053;-77
2022/05/17 01:56:38;;;;;;;7.85;4.20;;;;;;;16.00;79.07;96668.38;5050917;28;20051;-77
2022/05/17 01:59:04;;;;;;;6.95;3.83;;;;;;;15.93;79.37;96665.44;5050396;28;20045;-78
2022/05/17 02:01:31;;;;;;;8.98;3.97;;;;;;;15.89;79.35;96662.56;5050946;28;20036;-77
2022/05/17 02:03:57;;;;;;;13.15;4.15;;;;;;;15.86;79.57;96668.72;5050815;28;20052;-77
2022/05/17 02:06:25;;;;;;;7.80;4.20;;;;;;;15.88;79.41;96662.91;5050627;28;20040;-77
2022/05/17 02:08:52;;;;;;;8.18;4.40;;;;;;;15.80;79.51;96661.88;5053206;28;20488;-77
2022/05/17 02:11:18;;;;;;;8.07;3.85;;;;;;;15.82;79.33;96664.28;5059247;28;20112;-77
2022/05/17 02:13:46;;;;;;;6.43;3.95;;;;;;;15.82;79.38;96658.81;5058021;28;20068;-78
2022/05/17 02:16:13;;;;;;;6.60;4.10;;;;;;;15.80;79.23;96661.88;5051804;28;20075;-78
2022/05/17 02:18:39;;;;;;;7.88;3.92;;;;;;;15.84;79.19;96659.25;5050945;28;20047;-78
2022/05/17 02:21:06;;;;;;;8.00;3.67;;;;;;;15.85;79.21;96669.09;5050488;28;20045;-77
2022/05/17 02:23:33;;;;;;;8.82;4.28;;;;;;;15.79;79.31;96660.28;5050673;28;20069;-78
2022/05/17 02:25:59;;;;;;;7.30;3.95;;;;;;;15.81;79.01;96668.16;5050730;28;20045;-78
2022/05/17 02:28:26;;;;;;;8.38;3.75;;;;;;;15.75;79.37;96664.84;5049706;28;20045;-78
2022/05/17 02:30:54;;;;;;;16.13;4.78;;;;;;;15.75;78.87;96670.34;5050295;28;20055;-78
2022/05/17 02:33:20;;;;;;;11.00;4.40;;;;;;;15.63;79.47;96662.13;5049632;28;20456;-78
2022/05/17 02:35:47;;;;;;;7.13;4.45;;;;;;;15.64;79.47;96669.19;5050188;28;20048;-78
2022/05/17 02:38:13;;;;;;;8.40;4.82;;;;;;;15.62;79.85;96665.97;5049588;28;20045;-78
2022/05/17 02:40:40;;;;;;;6.72;4.05;;;;;;;15.65;79.65;96670.78;5050289;28;20075;-77
2022/05/17 02:43:07;;;;;;;12.20;4.47;;;;;;;15.60;79.46;96668.25;5047628;28;20040;-77
2022/05/17 02:45:34;;;;;;;9.63;4.38;;;;;;;15.60;79.76;96669.03;5050149;28;20048;-78
2022/05/17 02:48:02;;;;;;;13.30;4.65;;;;;;;15.61;79.20;96672.63;5049718;28;20127;-78
2022/05/17 02:50:28;;;;;;;10.20;5.25;;;;;;;15.49;79.63;96678.09;5050183;28;20037;-78
2022/05/17 02:52:55;;;;;;;7.55;4.53;;;;;;;15.54;79.75;96677.84;5050461;28;20053;-78
2022/05/17 02:55:21;;;;;;;9.85;4.50;;;;;;;15.56;79.62;96686.56;5049813;28;20143;-78
2022/05/17 02:57:49;;;;;;;7.65;3.83;;;;;;;15.46;79.90;96685.06;5050089;28;20057;-78
2022/05/17 03:00:17;;;;;;;11.73;5.00;;;;;;;15.48;79.59;96681.97;5049948;28;20047;-78
2022/05/17 03:02:44;;;;;;;8.80;4.35;;;;;;;15.37;80.38;96682.41;5052116;28;20397;-77
2022/05/17 03:05:14;;;;;;;8.05;4.28;;;;;;;15.38;80.15;96689.50;5051203;28;20075;-77
2022/05/17 03:07:41;;;;;;;7.25;4.32;;;;;;;15.35;80.24;96679.22;5053258;28;20048;-78
2022/05/17 03:10:09;;;;;;;11.55;5.00;;;;;;;15.35;80.27;96687.44;5052092;28;20118;-77
2022/05/17 03:12:35;;;;;;;10.00;4.30;;;;;;;15.32;80.31;96682.63;5048981;28;20054;-77
2022/05/17 03:15:02;;;;;;;8.82;4.30;;;;;;;15.40;80.08;96686.44;5032635;28;20596;-77
2022/05/17 03:17:28;;;;;;;8.02;4.50;;;;;;;15.35;80.21;96692.16;5030532;28;20072;-78
2022/05/17 03:19:56;;;;;;;7.07;4.55;;;;;;;15.34;80.49;96688.56;5029628;28;20049;-77
2022/05/17 03:22:24;;;;;;;8.65;5.30;;;;;;;15.37;80.34;96687.91;5029165;28;20153;-78
2022/05/17 03:24:51;;;;;;;8.15;4.80;;;;;;;15.32;80.26;96693.59;5029819;28;20045;-78
2022/05/17 03:27:18;;;;;;;8.98;4.43;;;;;;;15.19;80.78;96692.00;5029119;28;20049;-78
2022/05/17 03:29:45;;;;;;;9.55;4.85;;;;;;;15.25;80.71;96696.13;5030028;28;20044;-78
2022/05/17 03:32:12;;;;;;;6.82;4.75;;;;;;;15.27;80.64;96696.56;5029236;28;20050;-78
2022/05/17 03:34:39;;;;;;;9.23;4.72;;;;;;;15.32;80.44;96701.84;5029895;28;20077;-78
2022/05/17 03:37:06;;;;;;;10.88;5.10;;;;;;;15.34;80.26;96699.56;5029259;28;20500;-78
2022/05/17 03:39:34;;;;;;;9.55;4.60;;;;;;;15.31;80.16;96708.47;5029743;28;20041;-77
2022/05/17 03:42:02;;;;;;;9.52;4.45;;;;;;;15.31;80.20;96708.47;5028538;28;20139;-78
2022/05/17 03:44:28;;;;;;;11.63;4.68;;;;;;;15.33;80.02;96706.19;5029847;28;20048;-78
2022/05/17 03:46:55;;;;;;;9.85;4.00;;;;;;;15.38;80.09;96705.16;5048216;28;20041;-77
2022/05/17 03:49:21;;;;;;;6.80;4.53;;;;;;;15.39;80.13;96699.31;5049081;28;20056;-78
2022/05/17 03:51:48;;;;;;;10.88;4.50;;;;;;;15.36;79.61;96697.28;5049515;28;20045;-77
2022/05/17 03:54:18;;;;;;;12.10;4.60;;;;;;;15.32;79.62;96699.09;5049229;28;20064;-77
2022/05/17 03:56:46;;;;;;;10.27;5.20;;;;;;;15.26;79.64;96696.91;5049495;28;20052;-77
2022/05/17 03:59:13;;;;;;;8.13;4.32;;;;;;;15.19;79.90;96700.22;5050367;28;20057;-78
2022/05/17 04:01:39;;;;;;;11.52;5.00;;;;;;;15.21;80.22;96700.69;5053364;28;20041;-77
2022/05/17 04:04:06;;;;;;;6.00;4.47;;;;;;;15.27;80.22;96704.81;5053076;28;20053;-77
2022/05/17 04:06:32;;;;;;;11.15;4.80;;;;;;;15.29;80.47;96707.19;5053745;28;20618;-78
2022/05/17 04:08:59;;;;;;;9.20;4.65;;;;;;;15.26;80.12;96714.19;5053909;28;20492;-78
2022/05/17 04:11:26;;;;;;;9.23;4.85;;;;;;;15.27;79.94;96710.28;5056869;28;20096;-77
2022/05/17 04:13:54;;;;;;;8.30;5.10;;;;;;;15.24;80.07;96710.97;5043719;28;20053;-77
2022/05/17 04:16:20;;;;;;;9.80;4.72;;;;;;;15.24;80.37;96715.66;5033991;28;20046;-77
2022/05/17 04:18:48;;;;;;;6.43;4.65;;;;;;;15.27;80.35;96707.53;5034158;28;20057;-77
2022/05/17 04:21:14;;;;;;;8.95;5.05;;;;;;;15.30;80.09;96723.34;5032756;28;20045;-77
2022/05/17 04:23:41;;;;;;;10.65;5.15;;;;;;;15.31;80.11;96727.69;5032817;28;20049;-78
2022/05/17 04:26:08;;;;;;;8.35;4.63;;;;;;;15.30;80.39;96720.59;5032700;28;20487;-77
2022/05/17 04:28:34;;;;;;;10.55;5.47;;;;;;;15.36;79.97;96721.19;5033149;28;20109;-77
2022/05/17 04:31:02;;;;;;;10.32;4.60;;;;;;;15.38;79.89;96722.44;5032816;28;20057;-78
2022/05/17 04:33:29;;;;;;;7.40;4.90;;;;;;;15.40;80.14;96724.84;5032232;28;20049;-78
2022/05/17 04:35:55;;;;;;;10.82;5.30;;;;;;;15.44;79.99;96733.19;5033092;28;20044;-77
2022/05/17 04:38:22;;;;;;;11.88;5.25;;;;;;;15.48;80.07;96742.34;5032180;28;20049;-78
2022/05/17 04:40:49;;;;;;;8.43;5.00;;;;;;;15.49;79.98;96739.25;5032788;28;20056;-78
2022/05/17 04:43:15;;;;;;;8.25;4.90;;;;;;;15.54;80.05;96746.47;5031833;28;20045;-77
2022/05/17 04:45:44;;;;;;;7.22;5.47;;;;;;;15.52;79.64;96743.28;5049887;28;20048;-77
2022/05/17 04:48:12;;;;;;;10.20;4.70;;;;;;;15.54;79.91;96735.50;5072310;28;20057;-78
2022/05/17 04:50:39;;;;;;;11.35;5.28;;;;;;;15.55;79.70;96737.09;5072580;28;20048;-78
2022/05/17 04:53:06;;;;;;;8.73;4.63;;;;;;;15.57;79.97;96743.06;5071835;28;20044;-78
2022/05/17 04:55:33;;;;;;;11.73;5.47;;;;;;;15.46;80.09;96739.16;5072290;28;20045;-78
2022/05/17 04:57:59;;;;;;;9.75;5.25;;;;;;;15.46;80.54;96744.66;5072424;28;20051;-77
2022/05/17 05:00:27;;;;;;;7.53;4.75;;;;;;;15.46;80.74;96750.13;5071850;28;20491;-78
2022/05/17 05:02:54;;;;;;;11.57;5.30;;;;;;;15.46;80.57;96748.19;5072045;28;20376;-76
2022/05/17 05:05:23;;;;;;;8.77;5.10;;;;;;;15.51;80.66;96758.16;5071517;28;20040;-78
2022/05/17 05:07:50;;;;;;;12.23;5.75;;;;;;;15.53;80.49;96755.84;5072096;28;20127;-78
2022/05/17 05:10:17;;;;;;;8.43;4.80;;;;;;;15.60;80.43;96756.09;5071240;28;20056;-76
2022/05/17 05:12:43;;;;;;;11.38;5.97;;;;;;;15.63;80.57;96756.25;5060903;28;20562;-77
2022/05/17 05:15:11;;;;;;;10.30;5.18;;;;;;;15.61;80.38;96758.50;5051454;28;20053;-78
2022/05/17 05:17:38;;;;;;;10.20;4.90;;;;;;;15.74;80.25;96767.59;5051806;28;20052;-78
2022/05/17 05:20:09;;;;;;;17.23;5.32;;;;;;;15.80;80.20;96765.41;5051289;28;20048;-78
2022/05/17 05:22:38;;;;;;;12.80;5.40;;;;;;;15.84;80.05;96772.63;5052002;28;20033;-78
2022/05/17 05:25:06;;;;;;;12.55;5.32;;;;;;;15.90;80.29;96768.53;5051397;28;20075;-78
2022/05/17 05:27:33;;;;;;;8.70;4.90;;;;;;;15.98;80.12;96766.03;5051790;28;20044;-78
2022/05/17 05:30:00;;;;;;;8.70;5.70;;;;;;;16.04;80.19;96765.44;5049737;28;20543;-77
2022/05/17 05:32:26;;;;;;;9.88;5.68;;;;;;;16.07;79.76;96772.97;5047540;28;20084;-78
2022/05/17 05:34:53;;;;;;;11.73;5.70;;;;;;;16.14;79.77;96775.19;5047189;28;20048;-78
2022/05/17 05:37:20;;;;;;;14.68;5.55;;;;;;;16.12;79.38;96769.22;5046510;28;20045;-78
2022/05/17 05:39:48;;;;;;;9.82;5.90;;;;;;;16.20;79.70;96768.31;5047753;28;20049;-77
2022/05/17 05:42:15;;;;;;;11.68;6.47;;;;;;;16.27;79.87;96771.25;5046393;28;20048;-78
2022/05/17 05:44:41;;;;;;;10.43;5.78;;;;;;;16.32;78.99;96768.28;5046500;28;20041;-78
2022/05/17 05:47:08;;;;;;;9.77;5.65;;;;;;;16.32;79.51;96768.28;5046477;28;20037;-77
2022/05/17 05:49:34;;;;;;;9.38;5.75;;;;;;;16.38;78.64;96769.66;5047100;28;20610;-77
2022/05/17 05:52:01;;;;;;;9.38;5.75;;;;;;;16.40;79.13;96775.63;5046934;28;20052;-77
2022/05/17 05:54:27;;;;;;;11.25;5.75;;;;;;;16.44;78.41;96778.47;5046384;28;20144;-77
2022/05/17 05:56:59;;;;;;;6.90;5.25;;;;;;;16.48;78.58;96784.06;5046380;28;20057;-78
2022/05/17 05:59:28;;;;;;;11.68;6.43;;;;;;;16.48;78.33;96786.81;5050620;28;20055;-78
2022/05/17 06:01:54;;;;;;;12.52;6.57;;;;;;;16.50;78.21;96792.78;5050766;28;20037;-78
2022/05/17 06:04:21;;;;;;;11.88;6.32;;;;;;;16.49;77.92;96793.91;5050319;28;20049;-78
2022/05/17 06:06:47;;;;;;;11.00;5.88;;;;;;;16.48;78.55;96800.56;5051253;28;20060;-78
2022/05/17 06:09:14;;;;;;;11.30;5.90;;;;;;;16.47;78.31;96798.97;5052266;28;20048;-77
2022/05/17 06:11:41;;;;;;;13.95;6.32;;;;;;;16.41;79.15;96803.91;5052450;28;20048;-77
2022/05/17 06:14:09;;;;;;;10.07;6.25;;;;;;;16.41;78.92;96801.94;5061269;28;20052;-79
2022/05/17 06:16:35;;;;;;;14.32;6.75;;;;;;;16.50;78.74;96795.53;5057325;28;20045;-77
2022/05/17 06:19:02;;;;;;;12.18;6.47;;;;;;;16.52;79.06;96801.50;5052234;28;20052;-78
2022/05/17 06:21:28;;;;;;;11.07;6.13;;;;;;;16.55;78.96;96798.03;5051179;28;20416;-77
2022/05/17 06:23:55;;;;;;;9.73;6.25;;;;;;;16.56;78.25;96791.41;5051548;28;20045;-76
2022/05/17 06:26:21;;;;;;;13.63;6.55;;;;;;;16.55;78.55;96789.78;5050859;28;20143;-77
2022/05/17 06:28:48;;;;;;;11.10;6.68;;;;;;;16.58;78.03;96795.41;5051671;28;20044;-77
2022/05/17 06:31:16;;;;;;;14.88;6.65;;;;;;;16.62;78.00;96784.53;5050969;28;20495;-78
2022/05/17 06:33:42;;;;;;;13.43;6.43;;;;;;;16.66;78.44;96796.44;5051222;28;20045;-77
2022/05/17 06:36:09;;;;;;;11.82;6.70;;;;;;;16.66;78.92;96790.94;5050656;28;20044;-78
2022/05/17 06:38:35;;;;;;;17.10;7.55;;;;;;;16.74;78.64;96794.72;5051344;28;20068;-78
2022/05/17 06:41:04;;;;;;;10.73;6.47;;;;;;;16.80;78.79;96794.13;5050377;28;20098;-78
2022/05/17 06:43:30;;;;;;;13.80;7.10;;;;;;;16.94;79.36;96791.81;5051023;28;20047;-78
2022/05/17 06:45:57;;;;;;;15.68;7.38;;;;;;;16.80;78.42;96791.38;5050628;28;20052;-78
2022/05/17 06:48:24;;;;;;;19.88;8.10;;;;;;;16.83;78.71;96795.41;5049855;28;20492;-78
2022/05/17 06:50:51;;;;;;;14.55;7.95;;;;;;;17.02;77.89;96792.81;5050761;28;20060;-77
2022/05/17 06:53:17;;;;;;;12.07;7.60;;;;;;;17.07;78.55;96789.84;5050082;28;20045;-77
2022/05/17 06:55:44;;;;;;;11.52;7.75;;;;;;;17.09;76.84;96793.03;5050702;28;20048;-77
2022/05/17 06:58:11;;;;;;;11.60;7.75;;;;;;;16.90;77.33;96790.88;5049587;28;20045;-77
2022/05/17 07:00:37;;;;;;;15.30;7.72;;;;;;;16.89;79.11;96789.28;5050046;28;20052;-77
2022/05/17 07:03:04;;;;;;;12.23;7.72;;;;;;;16.86;78.03;96783.69;5049458;28;20423;-78
2022/05/17 07:05:32;;;;;;;14.45;7.82;;;;;;;16.94;78.52;96791.81;5050025;28;20638;-78
2022/05/17 07:08:01;;;;;;;13.77;7.82;;;;;;;16.97;78.49;96789.53;5049937;28;20049;-78
2022/05/17 07:13:13;;;;;;;12.38;8.32;;;;;;;17.08;78.76;96793.38;5049245;28;20195;-78
2022/05/17 07:15:42;;;;;;;13.77;8.23;;;;;;;17.15;77.18;96796.31;5050249;28;20047;-77
2022/05/17 07:18:10;;;;;;;11.80;7.70;;;;;;;17.36;76.97;96791.41;5049450;28;20048;-78
2022/05/17 07:20:38;;;;;;;16.58;8.20;;;;;;;17.56;76.93;96795.09;5049869;28;20488;-78
2022/05/17 07:23:06;;;;;;;19.55;8.35;;;;;;;17.55;76.47;96792.72;5049101;28;20656;-78
2022/05/17 07:25:32;;;;;;;15.88;7.95;;;;;;;17.53;77.28;96795.00;5049829;28;20049;-78
2022/05/17 07:27:59;;;;;;;11.10;7.65;;;;;;;17.63;77.14;96794.50;5049570;28;20043;-78
2022/05/17 07:30:26;;;;;;;11.95;7.50;;;;;;;17.64;75.77;96794.13;5049087;28;20041;-78
2022/05/17 07:32:52;;;;;;;14.50;7.93;;;;;;;17.76;75.41;96801.56;5050692;28;20048;-77
2022/05/17 07:35:19;;;;;;;11.80;7.65;;;;;;;17.85;74.35;96799.44;5053363;28;20493;-77
2022/05/17 07:37:47;;;;;;;18.42;9.20;;;;;;;17.95;74.72;96793.38;5053990;28;20539;-78
2022/05/17 07:40:14;;;;;;;15.00;8.75;;;;;;;17.97;74.97;96793.06;5053695;28;20464;-78
2022/05/17 07:42:40;;;;;;;16.17;8.48;;;;;;;17.94;74.98;96800.06;5053710;28;20045;-78
2022/05/17 07:45:08;;;;;;;12.65;8.65;;;;;;;18.24;76.79;96800.41;5053306;28;20053;-78
2022/05/17 07:47:35;;;;;;;14.05;9.40;;;;;;;18.39;71.71;96809.03;5053971;28;20056;-78
2022/05/17 07:50:03;;;;;;;28.63;10.63;;;;;;;18.36;71.80;96801.47;5053464;28;20041;-78
2022/05/17 07:52:29;;;;;;;13.45;8.13;;;;;;;18.51;71.79;96797.91;5054001;28;20037;-78
2022/05/17 07:54:59;;;;;;;15.38;9.00;;;;;;;18.74;71.53;96798.03;5053775;28;20076;-78
2022/05/17 07:57:26;;;;;;;17.52;9.70;;;;;;;19.11;70.54;96792.16;5053655;28;20496;-78
2022/05/17 07:59:52;;;;;;;16.58;8.20;;;;;;;19.46;67.93;96806.66;5053508;28;20151;-78
2022/05/17 08:02:19;;;;;;;16.23;8.98;;;;;;;19.42;67.51;96805.81;5052931;28;20408;-77
2022/05/17 08:04:46;;;;;;;13.75;9.00;;;;;;;19.21;67.11;96789.63;5053698;28;20052;-78
2022/05/17 08:07:13;;;;;;;16.38;8.88;;;;;;;18.94;68.21;96796.13;5052937;28;20049;-78
2022/05/17 08:09:39;;;;;;;15.82;9.40;;;;;;;18.85;70.36;96793.59;5054589;28;20049;-78
2022/05/17 08:12:10;;;;;;;14.35;8.45;;;;;;;18.85;69.11;96799.09;5059324;28;20559;-78
2022/05/17 08:14:40;;;;;;;12.48;8.38;;;;;;;19.19;67.34;96791.91;5054830;28;20079;-78
2022/05/17 08:17:08;;;;;;;19.85;9.98;;;;;;;19.32;66.29;96792.59;5053456;28;20049;-78
2022/05/17 08:19:35;;;;;;;15.73;8.88;;;;;;;19.26;66.69;96803.13;5054055;28;20500;-78
2022/05/17 08:22:03;;;;;;;15.05;8.63;;;;;;;19.47;65.94;96805.53;5053090;28;20056;-78
2022/05/17 08:27:31;;;;;;;17.85;8.05;;;;;;;19.81;63.26;96794.72;5053157;28;20047;-77
2022/05/17 08:27:32;;;;;;;13.82;7.78;;;;;;;19.88;64.94;96802.34;5053098;28;20049;-77
2022/05/17 08:29:59;;;;;;;16.23;7.47;;;;;;;19.78;61.52;96795.44;5053119;28;20128;-82
2022/05/17 08:35:10;;;;;;;13.63;7.28;;;;;;;20.27;60.95;96797.50;5052490;28;20053;-77
2022/05/17 08:37:36;;;;;;;13.80;6.93;;;;;;;20.47;61.12;96803.78;5053208;28;20517;-77
2022/05/17 08:40:04;;;;;;;14.25;7.30;;;;;;;20.73;60.10;96802.97;5052449;28;20056;-78
2022/05/17 08:42:39;;;;;;;14.80;8.23;;;;;;;20.90;62.31;96794.13;5053255;28;20042;-77
2022/05/17 08:45:13;;;;;;;13.27;8.05;;;;;;;20.88;57.81;96798.41;5052348;28;20057;-77
2022/05/17 08:47:46;;;;;;;9.45;6.75;;;;;;;20.56;60.78;96796.78;5053008;28;20047;-77
2022/05/17 08:50:14;;;;;;;;;;;;;;;20.73;59.54;96800.22;5053049;28;20607;-78
2022/05/17 08:52:42;;;;;;;12.57;7.10;;;;;;;20.88;57.39;96785.41;5053176;28;19944;-79
2022/05/17 08:55:17;;;;;;;13.05;6.93;;;;;;;20.98;57.17;96795.78;5052932;28;20053;-77
2022/05/17 08:57:48;;;;;;;11.65;6.97;;;;;;;20.93;57.25;96787.81;5053569;28;20633;-77
2022/05/17 09:00:18;;;;;;;18.63;7.85;;;;;;;21.11;56.65;96788.06;5052055;28;20056;-78
2022/05/17 09:02:50;;;;;;;12.55;6.60;;;;;;;20.85;56.09;96792.47;5053298;28;20091;-78
2022/05/17 09:05:30;;;;;;;11.70;7.07;;;;;;;20.67;58.95;96790.59;5052249;28;20045;-78
2022/05/17 09:08:03;;;;;;;12.75;7.72;;;;;;;20.94;57.48;96794.19;5052778;28;20048;-78
2022/05/17 09:10:33;;;;;;;;;;;;;;;21.24;58.73;96796.91;5053139;28;20452;-78
2022/05/17 09:13:07;;;;;;;13.88;7.80;;;;;;;21.14;58.98;96797.56;5053006;28;19935;-77
2022/05/17 09:15:33;;;;;;;15.50;7.78;;;;;;;21.13;58.25;96796.00;5052667;28;20064;-78
2022/05/17 09:18:05;;;;;;;13.40;6.05;;;;;;;21.15;55.39;96796.44;5052566;28;20052;-78
2022/05/17 09:20:35;;;;;;;9.10;5.15;;;;;;;21.42;54.58;96797.19;5052563;28;20041;-78
2022/05/17 09:23:01;;;;;;;12.13;6.15;;;;;;;21.28;54.73;96800.53;5051697;28;20049;-78
2022/05/17 09:25:46;;;;;;;9.65;6.20;;;;;;;21.31;55.94;96802.59;5052044;28;20051;-78
2022/05/17 09:28:18;;;;;;;9.55;5.90;;;;;;;21.54;55.28;96799.69;5051783;28;20099;-78
2022/05/17 09:30:46;;;;;;;13.15;6.43;;;;;;;21.74;54.54;96797.53;5052544;28;20140;-77
2022/05/17 09:33:15;;;;;;;16.70;5.50;;;;;;;21.63;53.13;96797.41;5051620;28;20658;-77
2022/05/17 09:35:45;;;;;;;15.18;6.28;;;;;;;21.40;56.83;96793.97;5052107;28;20413;-78
2022/05/17 09:38:15;;;;;;;14.20;5.95;;;;;;;21.29;56.10;96796.59;5051587;28;20041;-78
2022/05/17 09:40:42;;;;;;;6.90;4.15;;;;;;;21.61;53.73;96795.03;5053527;28;20041;-77
2022/05/17 09:43:12;;;;;;;9.10;4.13;;;;;;;21.93;54.62;96789.03;5052754;28;20049;-77
2022/05/17 09:45:50;;;;;;;9.27;4.05;;;;;;;22.26;53.56;96790.13;5053912;28;20040;-78
2022/05/17 09:48:29;;;;;;;6.82;4.28;;;;;;;22.23;50.63;96790.88;5052708;28;20053;-78
2022/05/17 09:53:43;;;;;;;9.48;4.45;;;;;;;22.32;50.33;96788.59;5053781;28;20047;-78
2022/05/17 09:56:10;;;;;;;9.43;3.88;;;;;;;22.02;51.06;96789.47;5052212;28;20045;-78
2022/05/17 09:58:38;;;;;;;10.35;4.75;;;;;;;21.78;53.40;96781.75;5053394;28;20100;-78
2022/05/17 10:01:16;;;;;;;8.27;4.00;;;;;;;21.80;51.16;96782.16;5052161;28;20048;-78
2022/05/17 10:03:44;;;;;;;7.22;3.78;;;;;;;21.97;51.87;96784.28;5052903;28;20049;-78
2022/05/17 10:06:16;;;;;;;10.13;3.30;;;;;;;21.91;49.94;96783.03;5053113;28;20049;-78
2022/05/17 10:08:47;;;;;;;11.25;3.58;;;;;;;22.08;53.47;96785.22;5054165;28;20044;-77
2022/05/17 10:11:21;;;;;;;5.60;3.60;;;;;;;22.41;52.42;96775.19;5053526;28;20041;-77
2022/05/17 10:13:56;;;;;;;5.05;3.03;;;;;;;22.76;49.91;96779.38;5042900;28;20051;-78
2022/05/17 10:16:30;;;;;;;7.82;4.22;;;;;;;22.90;49.68;96771.16;5040521;28;20049;-77
2022/05/17 10:18:59;;;;;;;10.88;4.22;;;;;;;22.40;50.08;96768.06;5038511;28;20046;-77
2022/05/17 10:21:35;;;;;;;10.07;4.15;;;;;;;22.61;50.29;96773.75;5039692;28;20113;-78
2022/05/17 10:24:09;;;;;;;8.63;4.50;;;;;;;22.62;48.26;96780.91;5034255;28;20408;-78
2022/05/17 10:26:40;;;;;;;9.20;4.10;;;;;;;22.66;47.99;96773.41;5033982;28;20073;-78
2022/05/17 10:29:14;;;;;;;7.45;4.03;;;;;;;22.63;50.88;96776.94;5032923;28;20132;-78
2022/05/17 10:31:50;;;;;;;10.07;4.97;;;;;;;22.65;47.80;96780.09;5033576;28;20515;-78
2022/05/17 10:34:32;;;;;;;8.38;3.97;;;;;;;22.83;49.42;96771.09;5032415;28;20504;-78
2022/05/17 10:37:06;;;;;;;7.72;4.05;;;;;;;23.03;50.64;96774.44;5032880;28;20100;-78
2022/05/17 10:39:39;;;;;;;8.60;4.40;;;;;;;22.94;48.08;96768.41;5031854;28;20794;-77
2022/05/17 10:42:06;;;;;;;;;;;;;;;22.80;46.05;96766.31;5031397;28;20073;-77
2022/05/17 10:44:39;;;;;;;9.20;4.20;;;;;;;22.50;49.13;96767.34;5031919;28;20012;-78
2022/05/17 10:47:14;;;;;;;8.55;4.72;;;;;;;22.48;48.66;96763.34;5031585;28;20053;-78
2022/05/17 10:49:54;;;;;;;7.93;4.25;;;;;;;22.52;50.64;96759.41;5031637;28;20048;-78
2022/05/17 10:52:30;;;;;;;10.15;4.68;;;;;;;22.45;48.44;96756.59;5030953;28;20049;-78
2022/05/17 10:55:08;;;;;;;9.38;4.70;;;;;;;22.18;48.49;96763.50;5053791;22;20052;-76
2022/05/17 10:57:49;;;;;;;15.23;5.15;;;;;;;22.06;50.05;96759.81;5049439;28;20044;-75
2022/05/17 11:00:19;;;;;;;16.88;5.47;;;;;;;22.23;49.44;96754.81;5049488;28;20041;-75
2022/05/17 11:03:15;;;;;;;12.27;4.22;;;;;;;22.44;49.47;96752.22;5050033;28;20073;-77
2022/05/17 11:05:54;;;;;;;7.88;4.47;;;;;;;22.49;49.96;96754.63;5049723;28;20048;-74
2022/05/17 11:08:29;;;;;;;8.73;5.28;;;;;;;22.75;48.35;96750.81;5049157;28;20037;-75
2022/05/17 11:11:06;;;;;;;7.15;4.68;;;;;;;22.80;48.00;96749.66;5050174;28;20060;-75
2022/05/17 11:13:39;;;;;;;8.32;4.47;;;;;;;22.56;46.64;96757.47;5046568;28;20048;-78
2022/05/17 11:16:12;;;;;;;8.18;4.70;;;;;;;22.05;46.42;96758.22;5049555;28;20487;-75
2022/05/17 11:18:46;;;;;;;7.00;4.28;;;;;;;22.00;48.09;96755.81;5049866;28;20532;-75
2022/05/17 11:21:18;;;;;;;11.00;4.97;;;;;;;21.71;48.32;96754.72;5061646;28;20048;-75
2022/05/17 11:23:50;;;;;;;14.20;4.67;;;;;;;21.66;50.46;96757.06;5069791;28;20757;-75
2022/05/17 11:26:52;;;;;;;10.10;4.10;;;;;;;21.89;49.82;96752.16;5069364;28;20557;-76
2022/05/17 11:29:46;;;;;;;8.75;4.07;;;;;;;22.08;52.35;96751.94;5069361;28;20518;-77
2022/05/17 11:32:22;;;;;;;9.55;4.32;;;;;;;22.37;49.08;96752.16;5069283;28;20533;-75
2022/05/17 11:34:53;;;;;;;8.55;4.20;;;;;;;22.33;46.18;96746.59;5069690;28;20052;-75
2022/05/17 11:37:55;;;;;;;8.30;4.00;;;;;;;22.23;47.02;96743.72;5069247;28;20502;-75
2022/05/17 11:40:52;;;;;;;8.60;4.60;;;;;;;21.87;50.32;96747.00;5036718;28;20055;-76
2022/05/17 11:43:41;;;;;;;7.57;5.10;;;;;;;22.03;51.75;96743.97;5065511;28;20040;-76
2022/05/17 11:46:57;;;;;;;9.77;4.95;;;;;;;22.34;48.89;96730.72;5069217;28;20040;-76
2022/05/17 11:49:30;;;;;;;10.77;4.93;;;;;;;22.58;50.80;96735.66;5068881;28;20110;-77
2022/05/17 11:52:33;;;;;;;7.63;4.50;;;;;;;22.73;50.71;96731.00;5069641;28;20501;-77